8T8 weather

San Geronimo Airpark
San Antonio, Texas, United States

Public forecast

Using degrees Fahrenheit for public forecast. Weather courtesy of forecast.io.

Closest aviation weather report (METAR) to San Geronimo Airpark

Closest report is Castroville Municipal Airport, 10.5 nm (19.4 km) SSW. Retrieved 2020/08/04 10:35 UTC (10 minutes ago):

KCVB 041035Z AUTO 29003KT 5SM BR CLR 24/23 A3003 RMK AO2 T02350230

Closest aviation forecast (TAF) to San Geronimo Airpark

Closest forecast is Lackland Air Force Base, 13.7 nm (25.3 km) ESE. Retrieved 2020/08/04 10:30 UTC (15 minutes ago):

TAF TAF KSKF 041000Z 0410/0516 14007KT 9999 FEW150 QNH2990INS TX39/0420Z TN22/0411Z